createdAt,value
2023-03-05T00:00:37.746Z,75.26
2023-03-05T00:01:41.193Z,75.57
2023-03-05T00:02:44.199Z,75.99
2023-03-05T00:03:47.201Z,76.57
2023-03-05T00:04:50.042Z,76.81
2023-03-05T00:05:57.908Z,76.68
2023-03-05T00:07:01.014Z,76.52
2023-03-05T00:08:04.337Z,76.56
2023-03-05T00:09:07.674Z,76.22
2023-03-05T00:10:11.025Z,76.04
2023-03-05T00:11:14.005Z,76.18
2023-03-05T00:12:17.453Z,76.10
2023-03-05T00:13:20.330Z,75.65
2023-03-05T00:14:23.477Z,75.82
2023-03-05T00:15:26.326Z,76.13
2023-03-05T00:16:29.930Z,76.08
2023-03-05T00:17:32.848Z,76.56
2023-03-05T00:18:36.627Z,76.81
2023-03-05T00:19:39.410Z,76.37
2023-03-05T00:20:42.342Z,76.58
2023-03-05T00:21:45.596Z,76.39
2023-03-05T00:22:48.473Z,76.37
2023-03-05T00:23:53.099Z,76.25
2023-03-05T00:24:55.987Z,76.21
2023-03-05T00:26:02.350Z,75.89
2023-03-05T00:27:05.236Z,75.78
2023-03-05T00:28:08.354Z,75.87
2023-03-05T00:29:18.750Z,75.72
2023-03-05T00:30:21.731Z,76.03
2023-03-05T00:31:30.763Z,75.91
2023-03-05T00:32:34.076Z,75.69
2023-03-05T00:33:37.091Z,75.56
2023-03-05T00:34:39.934Z,75.64
2023-03-05T00:35:45.110Z,75.58
2023-03-05T00:36:52.798Z,75.74
2023-03-05T00:37:56.081Z,75.91
2023-03-05T00:38:59.339Z,75.68
2023-03-05T00:40:02.588Z,75.75
2023-03-05T00:41:05.599Z,75.34
2023-03-05T00:42:08.683Z,75.41
2023-03-05T00:43:11.831Z,75.59
2023-03-05T00:44:14.871Z,75.78
2023-03-05T00:45:17.851Z,76.05
2023-03-05T00:46:20.918Z,76.24
2023-03-05T00:47:23.820Z,75.82
2023-03-05T00:48:27.092Z,75.71
2023-03-05T00:49:30.002Z,75.85
2023-03-05T00:50:33.018Z,75.99
2023-03-05T00:51:36.136Z,75.52
2023-03-05T00:52:39.383Z,75.50
2023-03-05T00:53:42.323Z,75.80
2023-03-05T00:54:45.206Z,76.18
2023-03-05T00:55:48.324Z,76.43
2023-03-05T00:56:51.353Z,76.49
2023-03-05T00:57:54.295Z,76.58
2023-03-05T00:58:57.850Z,76.75
2023-03-05T01:00:00.939Z,76.92
2023-03-05T01:01:05.039Z,76.80
2023-03-05T01:02:08.105Z,76.56
2023-03-05T01:03:11.075Z,76.85
2023-03-05T01:04:14.246Z,77.03
2023-03-05T01:05:17.139Z,76.87
2023-03-05T01:06:21.055Z,77.19
2023-03-05T01:07:23.990Z,77.26
2023-03-05T01:08:27.916Z,77.04
2023-03-05T01:09:31.181Z,77.07
2023-03-05T01:10:34.410Z,77.31
2023-03-05T01:11:37.806Z,77.37
2023-03-05T01:12:40.654Z,77.50
2023-03-05T01:13:43.527Z,77.92
2023-03-05T01:14:46.444Z,77.39
2023-03-05T01:15:51.293Z,77.22
2023-03-05T01:16:54.359Z,77.16
2023-03-05T01:17:57.338Z,77.45
2023-03-05T01:19:00.210Z,77.72
2023-03-05T01:20:05.852Z,76.89
2023-03-05T01:21:09.250Z,76.65
2023-03-05T01:22:12.134Z,76.46
2023-03-05T01:23:15.164Z,76.52
2023-03-05T01:24:17.975Z,76.62
2023-03-05T01:25:20.900Z,76.75
2023-03-05T01:26:23.906Z,76.81
2023-03-05T01:27:27.005Z,76.12
2023-03-05T01:28:30.045Z,76.04
2023-03-05T01:29:32.994Z,76.10
2023-03-05T01:30:36.176Z,76.40
2023-03-05T01:31:39.306Z,76.45
2023-03-05T01:32:43.484Z,76.29
2023-03-05T01:33:46.569Z,75.97
2023-03-05T01:34:49.475Z,75.72
2023-03-05T01:35:52.406Z,75.31
2023-03-05T01:36:55.299Z,75.36
2023-03-05T01:37:58.369Z,75.26
2023-03-05T01:39:01.665Z,75.37
2023-03-05T01:40:05.826Z,75.30
2023-03-05T01:41:09.678Z,75.48
2023-03-05T01:42:12.517Z,75.99
2023-03-05T01:43:29.562Z,76.05
2023-03-05T01:44:33.274Z,75.57
2023-03-05T01:45:36.173Z,75.63
2023-03-05T01:46:39.291Z,75.59
2023-03-05T01:47:42.563Z,75.99
2023-03-05T01:48:50.151Z,75.69
2023-03-05T01:49:54.688Z,76.22
2023-03-05T01:50:57.686Z,76.35
2023-03-05T01:52:12.270Z,76.45
2023-03-05T01:53:15.172Z,76.56
2023-03-05T01:54:21.522Z,76.68
2023-03-05T01:55:27.139Z,76.45
2023-03-05T01:56:31.325Z,76.53
2023-03-05T01:57:43.310Z,76.52
2023-03-05T01:58:46.786Z,75.99
2023-03-05T01:59:53.113Z,76.01
2023-03-05T02:00:56.467Z,76.03
2023-03-05T02:01:59.681Z,76.21
2023-03-05T02:03:06.741Z,77.07
2023-03-05T02:04:15.519Z,76.90
2023-03-05T02:05:31.142Z,76.50
2023-03-05T02:06:34.739Z,75.52
2023-03-05T02:07:40.391Z,75.47
2023-03-05T02:08:43.456Z,75.36
2023-03-05T02:09:47.048Z,75.28
2023-03-05T02:10:53.929Z,75.96
2023-03-05T02:11:57.701Z,76.32
2023-03-05T02:13:05.430Z,76.02
2023-03-05T02:14:10.275Z,75.54
2023-03-05T02:15:13.356Z,75.37
2023-03-05T02:16:16.421Z,75.73
2023-03-05T02:17:19.403Z,76.00
2023-03-05T02:18:24.064Z,75.75
2023-03-05T02:19:27.862Z,75.24
2023-03-05T02:20:44.174Z,75.13
2023-03-05T02:21:49.025Z,75.42
2023-03-05T02:22:51.992Z,75.04
2023-03-05T02:23:54.895Z,75.08
2023-03-05T02:24:57.884Z,75.24
2023-03-05T02:26:01.142Z,74.95
2023-03-05T02:27:05.841Z,75.21
2023-03-05T02:28:11.687Z,75.24
2023-03-05T02:29:19.321Z,75.54
2023-03-05T02:30:22.750Z,75.41
2023-03-05T02:31:26.593Z,75.93
2023-03-05T02:32:29.516Z,75.93
2023-03-05T02:33:32.758Z,75.89
2023-03-05T02:34:36.354Z,75.62
2023-03-05T02:35:39.729Z,75.46
2023-03-05T02:36:42.865Z,75.73
2023-03-05T02:37:46.431Z,75.30
2023-03-05T02:38:49.709Z,75.12
2023-03-05T02:39:52.884Z,75.27
2023-03-05T02:40:55.930Z,75.42
2023-03-05T02:41:58.710Z,75.12
2023-03-05T02:43:01.542Z,75.27
2023-03-05T02:44:04.484Z,74.76
2023-03-05T02:45:08.209Z,74.83
2023-03-05T02:46:11.797Z,74.94
2023-03-05T02:47:14.611Z,74.82
2023-03-05T02:48:17.664Z,75.29
2023-03-05T02:49:20.597Z,75.38
2023-03-05T02:50:24.184Z,75.32
2023-03-05T02:51:27.145Z,75.69
2023-03-05T02:52:31.398Z,75.28
2023-03-05T02:53:34.953Z,75.27
2023-03-05T02:54:37.817Z,75.92
2023-03-05T02:55:40.938Z,75.82
2023-03-05T02:56:43.958Z,75.60
2023-03-05T02:57:47.101Z,75.52
2023-03-05T02:58:50.014Z,75.51
2023-03-05T02:59:53.604Z,75.53
2023-03-05T03:00:56.620Z,75.75
2023-03-05T03:01:59.417Z,76.13
2023-03-05T03:03:02.367Z,75.62
2023-03-05T03:04:06.003Z,76.01
2023-03-05T03:05:09.461Z,75.47
2023-03-05T03:06:12.274Z,75.64
2023-03-05T03:07:15.865Z,75.87
2023-03-05T03:08:18.944Z,75.81
2023-03-05T03:09:21.786Z,75.92
2023-03-05T03:10:25.187Z,75.96
2023-03-05T03:11:27.996Z,76.05
2023-03-05T03:12:30.742Z,76.31
2023-03-05T03:13:33.622Z,76.08
2023-03-05T03:14:39.505Z,76.02
2023-03-05T03:15:42.432Z,75.89
2023-03-05T03:16:45.422Z,76.19
2023-03-05T03:17:48.632Z,76.62
2023-03-05T03:18:51.509Z,76.94
2023-03-05T03:19:54.460Z,76.92
2023-03-05T03:20:57.540Z,77.25
2023-03-05T03:22:00.618Z,77.33
2023-03-05T03:23:03.881Z,77.61
2023-03-05T03:24:07.086Z,76.98
2023-03-05T03:25:11.605Z,77.13
2023-03-05T03:26:14.480Z,76.91
2023-03-05T03:27:17.259Z,76.64
2023-03-05T03:28:20.233Z,76.51
2023-03-05T03:29:23.176Z,77.00
2023-03-05T03:30:26.066Z,77.07
2023-03-05T03:31:29.088Z,77.44
2023-03-05T03:32:32.880Z,78.10
2023-03-05T03:33:36.130Z,78.29
2023-03-05T03:34:39.079Z,78.08
2023-03-05T03:35:42.134Z,77.81
2023-03-05T03:36:47.021Z,77.86
2023-03-05T03:37:49.745Z,77.42
2023-03-05T03:38:52.650Z,77.80
2023-03-05T03:39:55.577Z,78.08
2023-03-05T03:40:58.644Z,78.07
2023-03-05T03:42:02.508Z,77.84
2023-03-05T03:43:05.365Z,78.02
2023-03-05T03:44:10.807Z,78.31
2023-03-05T03:45:13.967Z,78.40
2023-03-05T03:46:16.997Z,78.18
2023-03-05T03:47:19.888Z,78.07
2023-03-05T03:48:22.940Z,78.23
2023-03-05T03:49:26.816Z,78.55
2023-03-05T03:50:29.971Z,78.71
2023-03-05T03:51:33.242Z,78.73
2023-03-05T03:52:36.255Z,78.56
2023-03-05T03:53:39.180Z,78.22
2023-03-05T03:54:42.100Z,78.59
2023-03-05T03:55:46.719Z,78.66
2023-03-05T03:56:50.327Z,78.44
2023-03-05T03:57:54.051Z,78.22
2023-03-05T03:58:56.976Z,78.04
2023-03-05T04:00:00.453Z,77.97
2023-03-05T04:01:03.466Z,77.90
2023-03-05T04:02:07.705Z,77.70
2023-03-05T04:03:10.678Z,77.61
2023-03-05T04:04:14.532Z,77.86
2023-03-05T04:05:17.598Z,77.42
2023-03-05T04:06:20.475Z,77.64
2023-03-05T04:07:23.917Z,77.84
2023-03-05T04:08:26.918Z,77.23
2023-03-05T04:09:29.966Z,77.51
2023-03-05T04:10:32.809Z,77.80
2023-03-05T04:11:37.195Z,77.88
2023-03-05T04:12:43.206Z,77.91
2023-03-05T04:13:47.389Z,78.01
2023-03-05T04:14:50.438Z,77.87
2023-03-05T04:15:54.267Z,77.83
2023-03-05T04:16:57.224Z,78.06
2023-03-05T04:18:00.870Z,78.44
2023-03-05T04:19:03.639Z,77.81
2023-03-05T04:20:09.958Z,77.75
2023-03-05T04:21:13.025Z,77.77
2023-03-05T04:22:17.880Z,77.65
2023-03-05T04:23:20.774Z,77.79
2023-03-05T04:24:23.869Z,77.32
2023-03-05T04:25:26.594Z,77.22
2023-03-05T04:26:29.485Z,76.89
2023-03-05T04:27:34.399Z,77.03
2023-03-05T04:28:37.579Z,77.49
2023-03-05T04:29:40.397Z,77.81
2023-03-05T04:30:43.990Z,77.84
2023-03-05T04:31:47.146Z,78.09
2023-03-05T04:32:50.062Z,78.08
2023-03-05T04:33:52.939Z,77.72
2023-03-05T04:34:59.240Z,77.95
2023-03-05T04:36:02.152Z,78.02
2023-03-05T04:37:05.440Z,77.20
2023-03-05T04:38:09.136Z,76.79
2023-03-05T04:39:12.158Z,76.74
2023-03-05T04:40:16.177Z,76.89
2023-03-05T04:41:19.029Z,77.39
2023-03-05T04:42:22.078Z,77.67
2023-03-05T04:43:24.903Z,77.82
2023-03-05T04:44:27.733Z,77.77
2023-03-05T04:45:30.703Z,77.63
2023-03-05T04:46:33.422Z,77.36
2023-03-05T04:47:37.268Z,77.02
2023-03-05T04:48:40.793Z,77.19
2023-03-05T04:49:43.856Z,77.18
2023-03-05T04:50:46.695Z,77.01
2023-03-05T04:51:49.875Z,76.91
2023-03-05T04:52:52.705Z,76.16
2023-03-05T04:53:55.689Z,76.32
2023-03-05T04:54:58.662Z,76.62
2023-03-05T04:56:01.825Z,76.33
2023-03-05T04:57:05.184Z,76.27
2023-03-05T04:58:08.275Z,76.91
2023-03-05T04:59:11.450Z,76.96
2023-03-05T05:00:17.078Z,76.92
2023-03-05T05:01:20.572Z,77.02
2023-03-05T05:02:23.583Z,76.83
2023-03-05T05:03:26.446Z,77.03
2023-03-05T05:04:30.045Z,76.90
2023-03-05T05:05:33.142Z,77.09
2023-03-05T05:06:36.491Z,76.97
2023-03-05T05:07:39.528Z,76.51
2023-03-05T05:08:42.452Z,75.99
2023-03-05T05:09:45.356Z,76.28
2023-03-05T05:11:00.228Z,76.53
2023-03-05T05:12:03.253Z,76.56
2023-03-05T05:13:06.710Z,76.21
2023-03-05T05:14:09.596Z,76.02
2023-03-05T05:15:13.101Z,75.85
2023-03-05T05:16:16.510Z,76.05
2023-03-05T05:17:19.460Z,76.36
2023-03-05T05:18:23.020Z,76.17
2023-03-05T05:19:26.047Z,76.33
2023-03-05T05:20:29.156Z,75.93
2023-03-05T05:21:32.634Z,75.55
2023-03-05T05:22:35.676Z,76.01
2023-03-05T05:23:39.064Z,76.13
2023-03-05T05:24:41.995Z,76.01
2023-03-05T05:25:45.742Z,75.88
2023-03-05T05:26:49.180Z,75.73
2023-03-05T05:27:52.697Z,75.14
2023-03-05T05:28:55.697Z,75.27
2023-03-05T05:29:58.601Z,75.00
2023-03-05T05:31:06.969Z,74.88
2023-03-05T05:32:10.004Z,75.03
2023-03-05T05:33:12.966Z,75.48
2023-03-05T05:34:16.619Z,75.76
2023-03-05T05:35:19.467Z,75.30
2023-03-05T05:36:22.868Z,75.11
2023-03-05T05:37:27.341Z,74.85
2023-03-05T05:38:30.270Z,74.85
2023-03-05T05:39:33.106Z,74.63
2023-03-05T05:40:36.407Z,74.89
2023-03-05T05:41:39.377Z,74.81
2023-03-05T05:42:42.422Z,75.06
2023-03-05T05:43:45.947Z,75.40
2023-03-05T05:44:49.363Z,75.19
2023-03-05T05:45:52.420Z,75.44
2023-03-05T05:46:55.413Z,75.78
2023-03-05T05:47:58.326Z,75.67
2023-03-05T05:49:01.184Z,75.44
2023-03-05T05:50:05.433Z,75.11
2023-03-05T05:51:17.495Z,74.93
2023-03-05T05:52:20.404Z,74.33
2023-03-05T05:53:24.290Z,74.41
2023-03-05T05:54:27.236Z,75.02
2023-03-05T05:55:30.062Z,75.34
2023-03-05T05:56:34.364Z,75.04
2023-03-05T05:57:37.498Z,75.23
2023-03-05T05:58:41.909Z,74.76
2023-03-05T05:59:44.876Z,74.54
2023-03-05T06:00:47.714Z,73.94
2023-03-05T06:01:50.971Z,74.64
2023-03-05T06:02:53.801Z,74.70
2023-03-05T06:03:57.971Z,75.05
2023-03-05T06:05:00.784Z,75.21
2023-03-05T06:06:03.760Z,74.99
2023-03-05T06:07:06.988Z,74.25
2023-03-05T06:08:10.450Z,74.15
2023-03-05T06:09:13.538Z,74.69
2023-03-05T06:10:16.368Z,74.62
2023-03-05T06:11:19.735Z,74.75
2023-03-05T06:12:22.674Z,74.16
2023-03-05T06:13:25.605Z,73.69
2023-03-05T06:14:28.495Z,74.25
2023-03-05T06:15:31.582Z,73.76
2023-03-05T06:16:35.192Z,73.27
2023-03-05T06:17:38.488Z,73.25
2023-03-05T06:18:41.862Z,74.17
2023-03-05T06:19:44.692Z,73.92
2023-03-05T06:21:07.927Z,74.12
2023-03-05T06:22:11.408Z,74.37
2023-03-05T06:23:14.236Z,73.83
2023-03-05T06:24:19.536Z,74.07
2023-03-05T06:25:22.779Z,74.72
2023-03-05T06:26:26.638Z,74.74
2023-03-05T06:27:29.597Z,74.93
2023-03-05T06:28:33.235Z,74.91
2023-03-05T06:29:36.107Z,74.58
2023-03-05T06:30:39.428Z,74.30
2023-03-05T06:31:42.341Z,74.06
2023-03-05T06:32:45.132Z,74.14
2023-03-05T06:33:48.633Z,74.49
2023-03-05T06:34:51.700Z,74.76
2023-03-05T06:35:54.646Z,74.10
2023-03-05T06:36:57.819Z,74.17
2023-03-05T06:38:00.829Z,73.99
2023-03-05T06:39:04.866Z,73.81
2023-03-05T06:40:08.966Z,74.20
2023-03-05T06:41:18.561Z,74.25
2023-03-05T06:42:21.488Z,73.74
2023-03-05T06:43:24.363Z,74.11
2023-03-05T06:44:27.258Z,74.13
2023-03-05T06:45:30.153Z,74.32
2023-03-05T06:46:35.499Z,74.00
2023-03-05T06:47:39.219Z,73.67
2023-03-05T06:48:43.547Z,73.97
2023-03-05T06:49:46.474Z,74.54
2023-03-05T06:50:49.496Z,74.35
2023-03-05T06:51:52.779Z,73.64
2023-03-05T06:52:55.681Z,73.63
2023-03-05T06:54:11.581Z,73.53
2023-03-05T06:55:14.458Z,73.36
2023-03-05T06:56:18.716Z,72.42
2023-03-05T06:57:23.254Z,72.69
2023-03-05T06:58:26.434Z,73.07
2023-03-05T06:59:29.260Z,72.61
2023-03-05T07:00:32.164Z,72.78
2023-03-05T07:01:35.537Z,72.94
2023-03-05T07:02:38.828Z,73.14
2023-03-05T07:03:43.225Z,72.38
2023-03-05T07:04:46.551Z,71.40
2023-03-05T07:05:49.467Z,72.43
2023-03-05T07:06:52.598Z,72.83
2023-03-05T07:07:55.581Z,73.23
2023-03-05T07:09:01.556Z,72.74
2023-03-05T07:10:07.832Z,73.13
2023-03-05T07:11:16.153Z,73.43
2023-03-05T07:12:19.219Z,73.05
2023-03-05T07:13:22.308Z,72.42
2023-03-05T07:14:25.565Z,72.70
2023-03-05T07:15:28.467Z,72.49
2023-03-05T07:16:34.381Z,72.93
2023-03-05T07:17:37.548Z,73.12
2023-03-05T07:18:40.564Z,73.13
2023-03-05T07:19:44.283Z,73.12
2023-03-05T07:20:47.541Z,72.86
2023-03-05T07:21:50.683Z,72.33
2023-03-05T07:22:54.003Z,72.81
2023-03-05T07:23:59.369Z,73.01
2023-03-05T07:25:02.223Z,72.55
2023-03-05T07:26:07.266Z,72.67
2023-03-05T07:27:10.408Z,73.23
2023-03-05T07:28:13.416Z,73.61
2023-03-05T07:29:16.549Z,73.33
2023-03-05T07:30:20.062Z,73.51
2023-03-05T07:31:27.678Z,73.35
2023-03-05T07:32:31.398Z,72.46
2023-03-05T07:33:38.131Z,72.86
2023-03-05T07:34:41.171Z,72.22
2023-03-05T07:35:44.433Z,72.86
2023-03-05T07:36:51.608Z,72.38
2023-03-05T07:37:56.151Z,72.42
2023-03-05T07:38:59.263Z,72.61
2023-03-05T07:40:02.272Z,72.84
2023-03-05T07:41:10.851Z,72.97
2023-03-05T07:42:13.946Z,72.66
2023-03-05T07:43:18.120Z,72.21
2023-03-05T07:44:21.515Z,72.37
2023-03-05T07:45:24.450Z,72.30
2023-03-05T07:46:30.296Z,72.04
2023-03-05T07:47:33.237Z,71.71
2023-03-05T07:48:36.363Z,71.57
2023-03-05T07:49:41.827Z,72.13
2023-03-05T07:50:44.972Z,71.89
2023-03-05T07:51:48.188Z,71.30
2023-03-05T07:52:51.180Z,71.40
2023-03-05T07:53:56.201Z,70.92
2023-03-05T07:54:59.068Z,71.42
2023-03-05T07:56:02.241Z,71.54
2023-03-05T07:57:06.410Z,71.95
2023-03-05T07:58:09.406Z,70.50
2023-03-05T07:59:13.889Z,71.04
2023-03-05T08:00:17.603Z,72.15
2023-03-05T08:01:20.840Z,72.72
2023-03-05T08:02:23.903Z,72.30
2023-03-05T08:03:27.010Z,72.20
2023-03-05T08:04:32.241Z,72.26
2023-03-05T08:05:35.782Z,71.72
2023-03-05T08:06:42.178Z,71.88
2023-03-05T08:07:45.078Z,71.28
2023-03-05T08:08:48.413Z,70.58
2023-03-05T08:09:51.615Z,71.22
2023-03-05T08:10:54.652Z,71.43
2023-03-05T08:11:57.740Z,71.68
2023-03-05T08:13:00.637Z,71.58
2023-03-05T08:14:04.837Z,71.47
2023-03-05T08:15:08.389Z,72.23
2023-03-05T08:16:20.298Z,71.87
2023-03-05T08:17:23.619Z,71.56
2023-03-05T08:18:26.819Z,71.03
2023-03-05T08:19:29.725Z,70.97
2023-03-05T08:20:35.816Z,69.98
2023-03-05T08:21:38.920Z,70.01
2023-03-05T08:22:41.869Z,70.57
2023-03-05T08:23:44.847Z,70.18
2023-03-05T08:24:47.780Z,69.47
2023-03-05T08:25:50.573Z,69.59
2023-03-05T08:26:53.360Z,70.15
2023-03-05T08:27:56.304Z,70.57
2023-03-05T08:28:59.432Z,70.49
2023-03-05T08:30:03.048Z,69.22
2023-03-05T08:31:15.272Z,69.62
2023-03-05T08:32:19.052Z,69.49
2023-03-05T08:33:22.104Z,70.09
2023-03-05T08:34:25.075Z,68.92
2023-03-05T08:35:28.012Z,69.57
2023-03-05T08:36:31.181Z,70.46
2023-03-05T08:37:34.070Z,68.92
2023-03-05T08:38:37.687Z,69.33
2023-03-05T08:39:40.469Z,68.93
2023-03-05T08:40:43.536Z,68.28
2023-03-05T08:41:46.409Z,68.51
2023-03-05T08:42:49.444Z,69.74
2023-03-05T08:43:52.464Z,70.13
2023-03-05T08:44:55.289Z,70.47
2023-03-05T08:45:59.829Z,70.72
2023-03-05T08:47:03.063Z,70.80
2023-03-05T08:48:06.320Z,71.75
2023-03-05T08:49:11.183Z,71.99
2023-03-05T08:50:13.970Z,72.17
2023-03-05T08:51:19.467Z,72.56
2023-03-05T08:52:22.971Z,72.65
2023-03-05T08:53:25.892Z,72.67
2023-03-05T08:54:28.886Z,71.66
2023-03-05T08:55:31.794Z,70.81
2023-03-05T08:56:35.578Z,71.28
2023-03-05T08:57:38.598Z,71.23
2023-03-05T08:58:41.724Z,71.71
2023-03-05T08:59:44.776Z,71.50
2023-03-05T09:00:47.583Z,69.82
2023-03-05T09:01:50.692Z,69.38
2023-03-05T09:02:53.713Z,69.08
2023-03-05T09:03:57.058Z,69.08
2023-03-05T09:04:59.806Z,68.75
2023-03-05T09:06:05.218Z,68.48
2023-03-05T09:07:08.183Z,68.24
2023-03-05T09:08:11.453Z,68.41
2023-03-05T09:09:14.442Z,68.51
2023-03-05T09:10:18.745Z,68.86
2023-03-05T09:11:22.132Z,68.40
2023-03-05T09:12:25.936Z,68.74
2023-03-05T09:13:29.253Z,68.70
2023-03-05T09:14:32.472Z,69.16
2023-03-05T09:15:35.381Z,68.88
2023-03-05T09:16:40.709Z,69.14
2023-03-05T09:17:43.725Z,69.92
2023-03-05T09:18:46.853Z,69.77
2023-03-05T09:19:50.313Z,69.74
2023-03-05T09:20:53.577Z,71.01
2023-03-05T09:21:57.166Z,70.91
2023-03-05T09:23:00.254Z,70.25
2023-03-05T09:24:03.743Z,70.98
2023-03-05T09:25:07.575Z,70.39
2023-03-05T09:26:12.451Z,70.86
2023-03-05T09:27:15.534Z,71.02
2023-03-05T09:28:18.507Z,71.23
2023-03-05T09:29:21.336Z,71.54
2023-03-05T09:30:24.308Z,71.76
2023-03-05T09:31:27.704Z,71.47
2023-03-05T09:32:31.264Z,71.53
2023-03-05T09:33:34.970Z,71.02
2023-03-05T09:34:38.102Z,71.32
2023-03-05T09:35:41.395Z,71.85
2023-03-05T09:36:44.437Z,71.39
2023-03-05T09:37:47.376Z,69.68
2023-03-05T09:38:50.457Z,69.98
2023-03-05T09:39:53.654Z,69.66
2023-03-05T09:41:05.817Z,70.02
2023-03-05T09:42:23.760Z,70.63
2023-03-05T09:43:47.346Z,70.13
2023-03-05T09:45:18.878Z,69.81
2023-03-05T09:46:48.864Z,69.47
2023-03-05T09:48:18.331Z,68.60
2023-03-05T09:49:43.792Z,69.43
2023-03-05T09:50:59.349Z,69.77
2023-03-05T09:52:26.827Z,69.28
2023-03-05T09:54:02.429Z,68.80
2023-03-05T09:55:20.179Z,67.29
2023-03-05T09:56:28.898Z,68.64
2023-03-05T09:58:03.614Z,69.31
2023-03-05T09:59:30.417Z,68.31
2023-03-05T10:00:46.340Z,67.76
2023-03-05T10:01:50.748Z,66.67
2023-03-05T10:02:58.706Z,67.17
2023-03-05T10:04:10.401Z,65.67
2023-03-05T10:05:29.833Z,66.69
2023-03-05T10:06:37.422Z,66.20
2023-03-05T10:07:45.411Z,66.28
2023-03-05T10:09:10.243Z,66.38
2023-03-05T10:10:25.019Z,65.36
2023-03-05T10:11:47.507Z,65.61
2023-03-05T10:12:57.918Z,65.44
2023-03-05T10:14:01.517Z,65.36
2023-03-05T10:15:09.732Z,66.35
2023-03-05T10:16:54.274Z,66.25
2023-03-05T10:18:23.341Z,65.36
2023-03-05T10:19:42.268Z,64.65
2023-03-05T10:21:16.545Z,65.55
2023-03-05T10:22:23.221Z,66.07
2023-03-05T10:23:41.573Z,66.06
2023-03-05T10:25:16.029Z,64.41
2023-03-05T10:26:30.375Z,65.98
2023-03-05T10:27:54.115Z,65.02
2023-03-05T10:29:22.476Z,65.04
2023-03-05T10:30:55.034Z,65.58
2023-03-05T10:32:16.232Z,65.47
2023-03-05T10:33:37.466Z,65.22
2023-03-05T10:35:01.147Z,65.35
2023-03-05T10:36:22.811Z,64.57
2023-03-05T10:37:28.772Z,63.84
2023-03-05T10:38:35.414Z,63.56
2023-03-05T10:39:44.856Z,63.23
2023-03-05T10:40:52.551Z,63.60
2023-03-05T10:42:11.230Z,63.29
2023-03-05T10:43:24.702Z,61.80
2023-03-05T10:45:03.568Z,61.31
2023-03-05T10:46:13.048Z,61.65
2023-03-05T10:47:28.243Z,61.35
2023-03-05T10:48:40.813Z,61.75
2023-03-05T10:49:51.626Z,61.63
2023-03-05T10:50:57.923Z,61.88
2023-03-05T10:52:14.277Z,62.06
2023-03-05T10:53:28.604Z,61.53
2023-03-05T10:54:36.145Z,61.64
2023-03-05T10:55:39.194Z,60.97
2023-03-05T10:56:42.122Z,61.00
2023-03-05T10:57:45.235Z,61.02
2023-03-05T10:58:48.824Z,60.63
2023-03-05T10:59:55.190Z,60.78
2023-03-05T11:01:26.445Z,60.83
2023-03-05T11:02:29.563Z,60.74
2023-03-05T11:04:08.882Z,61.81
2023-03-05T11:05:31.662Z,61.81
2023-03-05T11:06:40.543Z,61.98
2023-03-05T11:07:43.825Z,61.65
2023-03-05T11:08:46.806Z,61.00
2023-03-05T11:10:04.639Z,61.17
2023-03-05T11:11:10.572Z,61.41
2023-03-05T11:12:19.878Z,61.71
2023-03-05T11:13:28.502Z,61.64
2023-03-05T11:14:33.670Z,60.62
2023-03-05T11:15:36.751Z,59.71
2023-03-05T11:16:51.154Z,59.77
2023-03-05T11:18:21.329Z,59.81
2023-03-05T11:19:30.481Z,60.78
2023-03-05T11:20:36.593Z,60.99
2023-03-05T11:21:40.041Z,59.87
2023-03-05T11:22:42.943Z,59.10
2023-03-05T11:24:05.339Z,58.81
2023-03-05T11:25:11.034Z,58.93
2023-03-05T11:26:14.125Z,59.24
2023-03-05T11:27:39.093Z,60.30
2023-03-05T11:28:57.796Z,60.00
2023-03-05T11:30:01.270Z,60.53
2023-03-05T11:31:20.653Z,60.89
2023-03-05T11:32:27.297Z,60.07
2023-03-05T11:33:31.362Z,60.42
2023-03-05T11:34:36.278Z,60.20
2023-03-05T11:35:42.457Z,60.44
2023-03-05T11:37:06.569Z,60.18
2023-03-05T11:38:19.161Z,58.68
2023-03-05T11:39:24.603Z,59.13
2023-03-05T11:40:32.102Z,59.82
2023-03-05T11:41:40.394Z,59.90
2023-03-05T11:42:44.948Z,59.56
2023-03-05T11:43:53.667Z,59.25
2023-03-05T11:44:58.321Z,59.59
2023-03-05T11:46:05.068Z,58.87
2023-03-05T11:47:17.612Z,57.77
2023-03-05T11:48:24.323Z,57.27
2023-03-05T11:49:29.356Z,57.00
2023-03-05T11:50:35.345Z,56.62
2023-03-05T11:51:44.254Z,57.50
2023-03-05T11:52:50.623Z,55.48
2023-03-05T11:54:04.223Z,54.80
2023-03-05T11:55:16.556Z,56.04
2023-03-05T11:56:25.676Z,57.01
2023-03-05T11:57:35.880Z,56.26
2023-03-05T11:58:49.163Z,56.52
2023-03-05T11:59:56.169Z,56.36
2023-03-05T12:01:01.322Z,57.09
2023-03-05T12:02:07.687Z,56.44
2023-03-05T12:03:18.462Z,57.43
2023-03-05T12:04:22.583Z,56.76
2023-03-05T12:05:27.402Z,58.07
2023-03-05T12:06:44.510Z,58.66
2023-03-05T12:07:55.613Z,58.25
2023-03-05T12:09:02.791Z,57.73
2023-03-05T12:10:06.068Z,58.12
2023-03-05T12:11:29.102Z,57.46
2023-03-05T12:12:58.562Z,57.40
2023-03-05T12:14:15.517Z,57.79
2023-03-05T12:15:45.081Z,57.88
2023-03-05T12:17:13.271Z,57.58
2023-03-05T12:18:34.937Z,55.24
2023-03-05T12:20:08.268Z,56.84
2023-03-05T12:21:32.413Z,57.19
2023-03-05T12:22:42.000Z,56.83
2023-03-05T12:23:52.222Z,57.72
2023-03-05T12:25:25.884Z,57.04
2023-03-05T12:26:53.706Z,56.69
2023-03-05T12:27:57.313Z,54.74
2023-03-05T12:29:01.686Z,54.61
2023-03-05T12:30:06.488Z,52.77
2023-03-05T12:31:09.931Z,52.37
2023-03-05T12:32:31.775Z,51.10
2023-03-05T12:33:44.937Z,51.49
2023-03-05T12:34:56.910Z,51.18
2023-03-05T12:36:18.558Z,51.58
2023-03-05T12:37:21.865Z,51.12
2023-03-05T12:38:34.566Z,50.67
2023-03-05T12:39:41.721Z,50.74
2023-03-05T12:40:45.127Z,51.31
2023-03-05T12:41:48.401Z,50.56
2023-03-05T12:42:59.452Z,50.72
2023-03-05T12:44:09.305Z,50.71
2023-03-05T12:45:12.912Z,51.50
2023-03-05T12:46:33.700Z,51.36
2023-03-05T12:47:46.989Z,51.19
2023-03-05T12:48:50.383Z,50.67
2023-03-05T12:49:54.022Z,49.82
2023-03-05T12:50:59.607Z,49.81
2023-03-05T12:52:06.268Z,49.16
2023-03-05T12:53:25.112Z,47.61
2023-03-05T12:54:33.806Z,46.94
2023-03-05T12:55:47.604Z,46.94
2023-03-05T12:56:53.383Z,46.97
2023-03-05T12:58:16.113Z,46.52
2023-03-05T12:59:24.134Z,47.05
2023-03-05T13:00:50.379Z,47.30
2023-03-05T13:02:00.969Z,48.07
2023-03-05T13:03:10.269Z,48.98
2023-03-05T13:04:21.827Z,49.52
2023-03-05T13:05:36.116Z,49.84
2023-03-05T13:06:40.052Z,48.86
2023-03-05T13:07:43.842Z,49.20
2023-03-05T13:08:58.732Z,50.16
2023-03-05T13:10:06.659Z,51.25
2023-03-05T13:11:23.024Z,50.65
2023-03-05T13:12:29.933Z,50.64
2023-03-05T13:13:42.308Z,51.98
2023-03-05T13:14:57.673Z,51.65
2023-03-05T13:16:01.823Z,52.13
2023-03-05T13:17:25.003Z,53.06
2023-03-05T13:18:31.193Z,53.50
2023-03-05T13:19:36.666Z,53.59
2023-03-05T13:20:43.388Z,53.53
2023-03-05T13:21:57.411Z,53.13
2023-03-05T13:23:32.699Z,53.03
2023-03-05T13:24:36.665Z,53.08
2023-03-05T13:25:40.633Z,53.85
2023-03-05T13:26:44.330Z,53.57
2023-03-05T13:27:47.716Z,53.69
2023-03-05T13:29:31.849Z,53.31
2023-03-05T13:30:35.831Z,52.55
2023-03-05T13:32:01.967Z,52.87
2023-03-05T13:33:06.983Z,53.28
2023-03-05T13:34:21.617Z,53.64
2023-03-05T13:35:26.217Z,53.75
2023-03-05T13:36:30.310Z,54.00
2023-03-05T13:37:38.790Z,54.01
2023-03-05T13:38:47.040Z,54.44
2023-03-05T13:39:50.603Z,54.57
2023-03-05T13:41:21.022Z,54.04
2023-03-05T13:42:31.930Z,54.02
2023-03-05T13:43:43.576Z,54.40
2023-03-05T13:45:01.360Z,54.71
2023-03-05T13:46:05.257Z,54.43
2023-03-05T13:47:19.936Z,54.42
2023-03-05T13:48:23.322Z,54.51
2023-03-05T13:49:29.465Z,54.15
2023-03-05T13:50:41.103Z,53.52
2023-03-05T13:51:46.332Z,53.67
2023-03-05T13:52:50.832Z,53.74
2023-03-05T13:53:54.889Z,53.60
2023-03-05T13:55:02.038Z,53.82
2023-03-05T13:56:08.518Z,54.11
2023-03-05T13:57:53.565Z,54.72
2023-03-05T13:58:57.964Z,55.93
2023-03-05T14:00:01.214Z,55.99
2023-03-05T14:01:13.899Z,55.98
2023-03-05T14:02:21.443Z,55.69
2023-03-05T14:03:32.658Z,55.61
2023-03-05T14:04:41.858Z,55.64
2023-03-05T14:05:50.787Z,56.07
2023-03-05T14:06:59.400Z,56.84
2023-03-05T14:08:04.426Z,56.87
2023-03-05T14:09:21.791Z,57.11
2023-03-05T14:10:28.474Z,57.29
2023-03-05T14:11:32.116Z,57.56
2023-03-05T14:12:43.919Z,57.00
2023-03-05T14:13:50.305Z,56.41
2023-03-05T14:14:54.574Z,56.21
2023-03-05T14:16:09.027Z,56.42